Address 0xbec3d322feb54ceb11c5bcc9fe99dd37809101a3 1

 
Ad
Ad
Txn Hash Method
Block
From
To
Value [Txn Fee]
0x4f8d9b01390f2a52936b90dbfcd4854945dcff0b1f4add626049de38cd96c9fcSet ERC1155Listi...220099722021-12-01 10:49:4010 hrs 36 mins ago0xbec3d322feb54ceb11c5bcc9fe99dd37809101a3OUT Aavegotchi: NFTs0 MATIC0.013417056
0x3bb19cf93bd637e274cf083bb33166f1a29e5c5eee0a96eefa2de71ce48423daCancel ERC1155Li...220099572021-12-01 10:49:1010 hrs 37 mins ago0xbec3d322feb54ceb11c5bcc9fe99dd37809101a3OUT Aavegotchi: NFTs0 MATIC0.0019832
0xacff931a17c7d629bdf7828f06c50572dd50c96900ed1d06e53c9ef230a61d6fSet ERC1155Listi...219759862021-11-30 13:52:381 day 7 hrs ago0xbec3d322feb54ceb11c5bcc9fe99dd37809101a3OUT Aavegotchi: NFTs0 MATIC0.0419283
0x693661134540901b93a94753a7a0e59f571e66c6b211064c6c9e14cd6ae37a51Set ERC1155Listi...219759702021-11-30 13:51:021 day 7 hrs ago0xbec3d322feb54ceb11c5bcc9fe99dd37809101a3OUT Aavegotchi: NFTs0 MATIC0.0419283
0x3169f0c503b459c8ac5802c9391ecd81628f13ff4615c642e37ec10d61699ec3Cancel ERC1155Li...219759492021-11-30 13:48:561 day 7 hrs ago0xbec3d322feb54ceb11c5bcc9fe99dd37809101a3OUT Aavegotchi: NFTs0 MATIC0.0059619
0xa1db59931113ba1583a42314edaf24f63b21dd14048595fa333f9652ae6d1c76Cancel ERC1155Li...219759402021-11-30 13:48:021 day 7 hrs ago0xbec3d322feb54ceb11c5bcc9fe99dd37809101a3OUT Aavegotchi: NFTs0 MATIC0.0061975
0xfd8cbaacf2cb93932244be96ddef976e3c83dfae543858085290b895f30a609aTransfer219759152021-11-30 13:46:481 day 7 hrs ago0xbec3d322feb54ceb11c5bcc9fe99dd37809101a3SELF0xbec3d322feb54ceb11c5bcc9fe99dd37809101a30 MATIC0.000924
0x3e75f0688c3643874136d50a573c547e1c1b4090474db85e49bee6978647323eSet ERC1155Listi...219331812021-11-29 10:25:232 days 11 hrs ago0xbec3d322feb54ceb11c5bcc9fe99dd37809101a3OUT Aavegotchi: NFTs0 MATIC0.013417056
0xc17911d4ad3101e642c2a73b35646655947406498543e48a3462fd0a9062b0dcCancel ERC1155Li...219331622021-11-29 10:24:452 days 11 hrs ago0xbec3d322feb54ceb11c5bcc9fe99dd37809101a3OUT Aavegotchi: NFTs0 MATIC0.0019832
0x072f9d721eab9cad02d321abffad1d768c17e047313285757fc2a74d3d324d25Stake Into Pool219321962021-11-29 9:51:322 days 11 hrs ago0xbec3d322feb54ceb11c5bcc9fe99dd37809101a3OUT Aavegotchi: stkGHST-QUICK0 MATIC0.003876256
0xf1313002cc6de5126fdb9aeb16a535e04b11db6487ce2e5e26cf49b5090397a0Set ERC1155Listi...219172112021-11-28 23:42:182 days 21 hrs ago0xbec3d322feb54ceb11c5bcc9fe99dd37809101a3OUT Aavegotchi: NFTs0 MATIC0.013417056
0xcbae651a18db5065a3373bbd5ba25cb17668871a10b7f936d75e98d9b1613dc8Cancel ERC1155Li...219171902021-11-28 23:41:362 days 21 hrs ago0xbec3d322feb54ceb11c5bcc9fe99dd37809101a3OUT Aavegotchi: NFTs0 MATIC0.0019832
0x99706e2ee80be70a5de6f5b62e54f5656dd4448e571c3dbd408c82908aeffbfaSet ERC1155Listi...219171162021-11-28 23:39:002 days 21 hrs ago0xbec3d322feb54ceb11c5bcc9fe99dd37809101a3OUT Aavegotchi: NFTs0 MATIC0.013417056
0x8b55117c9788a141718f173ee2e3a578fd72395e39043210f524bafb8eafbd99Cancel ERC1155Li...219170902021-11-28 23:38:082 days 21 hrs ago0xbec3d322feb54ceb11c5bcc9fe99dd37809101a3OUT Aavegotchi: NFTs0 MATIC0.001907808
0x66878beebd60e22bfcd6a29a35add53b48da3f074d5db50b5b450c5f5df5d057Set ERC1155Listi...219001722021-11-28 13:21:393 days 8 hrs ago0xbec3d322feb54ceb11c5bcc9fe99dd37809101a3OUT Aavegotchi: NFTs0 MATIC0.002835072
0x9051a30db3914b3a205589590756f8bfdf7bf8fd03cfac79cce04da7d7b27f32Set ERC1155Listi...219001502021-11-28 13:20:513 days 8 hrs ago0xbec3d322feb54ceb11c5bcc9fe99dd37809101a3OUT Aavegotchi: NFTs0 MATIC0.013417056
0xe8d3e52426dce9e0ad233e256f95a1790206de759dcacb99287d98e15823f425Cancel ERC1155Li...219001332021-11-28 13:20:173 days 8 hrs ago0xbec3d322feb54ceb11c5bcc9fe99dd37809101a3OUT Aavegotchi: NFTs0 MATIC0.0019832
0x9477ed603f4cfe9305aaba67aa7376ec747158c2462b05f3e3aa024cb3364e16Stake Into Pool218130302021-11-26 6:59:595 days 14 hrs ago0xbec3d322feb54ceb11c5bcc9fe99dd37809101a3OUT Aavegotchi: stkGHST-QUICK0 MATIC0.003876256
0x86bfb09c403ef167bfe86122e9663555fea377a77b946733425e7f0933205693Stake Into Pool217986282021-11-25 21:33:465 days 23 hrs ago0xbec3d322feb54ceb11c5bcc9fe99dd37809101a3OUT Aavegotchi: stkGHST-QUICK0 MATIC0.003876256
0x87c4e225271d70031e4d5eafb946ffbeab7d0f8e84cdb1df386778eba44b4957Set ERC1155Listi...217985942021-11-25 21:32:385 days 23 hrs ago0xbec3d322feb54ceb11c5bcc9fe99dd37809101a3OUT Aavegotchi: NFTs0 MATIC0.013417056
0x3f3f38d93abd634f5d43927445ae1f693030d1820b9d21d9ca1797297a319be9Execute ERC1155L...217985392021-11-25 21:29:005 days 23 hrs ago0xbec3d322feb54ceb11c5bcc9fe99dd37809101a3OUT Aavegotchi: NFTs0 MATIC0.01755616
0xaeb0cda128a193fb3a820d828f721e80d024436ea8dbad61aa6486d828f52adfWithdraw From Po...217985312021-11-25 21:28:285 days 23 hrs ago0xbec3d322feb54ceb11c5bcc9fe99dd37809101a3OUT Aavegotchi: stkGHST-QUICK0 MATIC0.003588096
0xe60b5f1e609352c6c8f3ee8f3ad5b660588576cbaf79d24565d4f3d7e4734dd3Set ERC1155Listi...217966152021-11-25 20:18:126 days 1 hr ago0xbec3d322feb54ceb11c5bcc9fe99dd37809101a3OUT Aavegotchi: NFTs0 MATIC0.013417056
0x3d8b7a60b30abde863dcb801812818f764396759807c502739aea4c19a3c36e9Cancel ERC1155Li...217965982021-11-25 20:17:346 days 1 hr ago0xbec3d322feb54ceb11c5bcc9fe99dd37809101a3OUT Aavegotchi: NFTs0 MATIC0.0019832
0x1b09fe586aae97db3f3e9be5e5462473a7142014972c6be6bc25aa6e793ea014Set ERC1155Listi...217830122021-11-25 11:49:156 days 9 hrs ago0xbec3d322feb54ceb11c5bcc9fe99dd37809101a3OUT Aavegotchi: NFTs0 MATIC0.013417056
[ Download CSV Export 
Latest 2 internal transactions
Parent Txn Hash Block From To Value
0x3d8b2bed4175416ad20a61ee58e4991f975f60c41fe844c4eb7111a0ed03cf50207082372021-10-28 15:43:2534 days 5 hrs ago QuickSwap: Router0xbec3d322feb54ceb11c5bcc9fe99dd37809101a32.099949174830207696 MATIC
0xcd293a44ecae1a0bb9a690d56659d8d4d736d6fca7b82162365675caa8f7e7e2201860712021-10-13 20:47:1249 days 39 mins ago 0xb15cc34babedeb57be0494a31a0072e8041df6a60xbec3d322feb54ceb11c5bcc9fe99dd37809101a30.02 MATIC
[ Download CSV Export 
Loading

Contract Name:
0 MATIC

Compiler Version
0

Optimization Enabled:
0 MATIC

Other Settings:
-NA-
Block Transaction Gas Used Reward
Age Block Fee Address BC Fee Address Voting Power Jailed Incoming
Block Uncle Number Difficulty Gas Used Reward
Loading
Loading
Make sure to use the "Vote Down" button for any spammy posts, and the "Vote Up" for interesting conversations.